Time;durP1;ratioP1;P1;durP2;ratioP2;P2;SDS_P1;SDS_P2;PMS_P1;PMS_P2;Temp;Humidity;BMP_temperature;BMP_pressure;BME280_temperature;BME280_humidity;BME280_pressure;Samples;Min_cycle;Max_cycle;Signal;HPM_P1;HPM_P2
2022/02/12 00:02:15;;;;;;;100.22;45.42;;;;;;;1.82;100.00;98157.75;5066232;28;20408;-85
2022/02/12 00:04:41;;;;;;;87.40;40.65;;;;;;;1.73;100.00;98158.78;5053240;28;20080;-85
2022/02/12 00:07:07;;;;;;;95.57;43.30;;;;;;;1.75;100.00;98166.69;5062187;28;20020;-85
2022/02/12 00:09:32;;;;;;;94.50;41.03;;;;;;;1.70;100.00;98164.13;5062891;28;20024;-86
2022/02/12 00:11:58;;;;;;;85.32;40.08;;;;;;;1.77;100.00;98172.81;5069298;28;20074;-85
2022/02/12 00:14:23;;;;;;;82.22;37.92;;;;;;;1.72;100.00;98166.75;5070319;28;20487;-85
2022/02/12 00:16:57;;;;;;;84.72;39.33;;;;;;;1.79;100.00;98185.06;5062896;28;20044;-84
2022/02/12 00:19:23;;;;;;;80.95;39.13;;;;;;;1.72;100.00;98169.38;5061645;28;20024;-84
2022/02/12 00:22:10;;;;;;;80.05;37.67;;;;;;;1.76;100.00;98186.88;5063744;28;20353;-87
2022/02/12 00:24:35;;;;;;;81.30;36.47;;;;;;;1.61;100.00;98174.81;5062871;28;20195;-84
2022/02/12 00:27:01;;;;;;;74.60;35.08;;;;;;;1.58;100.00;98188.94;5072092;28;20498;-84
2022/02/12 00:29:27;;;;;;;88.70;38.75;;;;;;;1.56;100.00;98177.56;5064444;28;20048;-84
2022/02/12 00:31:52;;;;;;;79.80;37.40;;;;;;;1.61;100.00;98180.09;5065073;28;20024;-85
2022/02/12 00:34:18;;;;;;;72.25;37.17;;;;;;;1.59;100.00;98174.00;5089185;28;20016;-85
2022/02/12 00:36:43;;;;;;;75.28;36.78;;;;;;;1.61;100.00;98185.38;5070080;28;20024;-84
2022/02/12 00:39:09;;;;;;;84.30;39.45;;;;;;;1.59;100.00;98185.41;5065794;28;20012;-84
2022/02/12 00:41:34;;;;;;;87.82;38.33;;;;;;;1.55;100.00;98180.19;5064201;28;20058;-84
2022/02/12 00:44:00;;;;;;;98.72;39.30;;;;;;;1.51;100.00;98174.09;5067302;28;20020;-85
2022/02/12 00:46:27;;;;;;;88.85;37.35;;;;;;;1.61;100.00;98188.00;5065938;28;20051;-85
2022/02/12 00:48:53;;;;;;;80.93;37.03;;;;;;;1.52;100.00;98182.88;5069291;28;20031;-85
2022/02/12 00:51:18;;;;;;;81.32;37.38;;;;;;;1.64;100.00;98199.38;5086854;28;20028;-85
2022/02/12 00:53:44;;;;;;;88.40;40.25;;;;;;;1.65;100.00;98189.72;5068055;28;20534;-85
2022/02/12 00:56:12;;;;;;;88.57;43.15;;;;;;;1.70;100.00;98194.88;5065335;28;20060;-85
2022/02/12 00:58:38;;;;;;;84.28;37.33;;;;;;;1.75;100.00;98200.97;5083146;28;20032;-86
2022/02/12 01:01:03;;;;;;;90.95;41.08;;;;;;;1.62;100.00;98188.00;5057277;28;20020;-86
2022/02/12 01:03:29;;;;;;;96.82;42.47;;;;;;;1.70;100.00;98201.03;5065424;28;20025;-86
2022/02/12 01:05:54;;;;;;;110.65;46.67;;;;;;;1.85;100.00;98205.19;5068205;28;20031;-85
2022/02/12 01:08:20;;;;;;;105.65;48.45;;;;;;;1.75;100.00;98198.34;5076134;28;20023;-86
2022/02/12 01:10:45;;;;;;;121.95;54.75;;;;;;;1.74;100.00;98220.31;5091710;28;20031;-85
2022/02/12 01:13:11;;;;;;;119.13;52.65;;;;;;;1.69;100.00;98224.81;5068312;28;20056;-85
2022/02/12 01:15:36;;;;;;;107.53;50.55;;;;;;;1.58;100.00;98220.56;5092805;28;20035;-85
2022/02/12 01:18:03;;;;;;;120.07;54.10;;;;;;;1.47;100.00;98204.06;5068695;28;20411;-85
2022/02/12 01:20:28;;;;;;;106.78;49.50;;;;;;;1.44;100.00;98205.88;5068360;28;20023;-85
2022/02/12 01:22:54;;;;;;;105.53;46.55;;;;;;;1.38;100.00;98198.94;5075997;28;20424;-85
2022/02/12 01:25:22;;;;;;;107.53;47.42;;;;;;;1.44;100.00;98201.47;5064238;28;20020;-85
2022/02/12 01:27:48;;;;;;;90.22;45.72;;;;;;;1.54;100.00;98210.94;5089696;28;20032;-85
2022/02/12 01:30:14;;;;;;;89.68;41.63;;;;;;;1.58;100.00;98222.31;5073288;28;20030;-85
2022/02/12 01:32:39;;;;;;;86.22;40.28;;;;;;;1.55;100.00;98217.97;5067617;28;20054;-85
2022/02/12 01:35:10;;;;;;;88.35;39.17;;;;;;;1.57;100.00;98224.09;5069806;28;20029;-85
2022/02/12 01:37:37;;;;;;;85.45;39.53;;;;;;;1.47;100.00;98214.59;5071172;28;20123;-85
2022/02/12 01:40:03;;;;;;;81.47;38.72;;;;;;;1.41;100.00;98219.09;5067140;28;20028;-85
2022/02/12 01:42:29;;;;;;;74.55;36.40;;;;;;;1.33;100.00;98211.28;5062963;28;20100;-85
2022/02/12 01:44:55;;;;;;;72.95;30.48;;;;;;;1.33;100.00;98226.22;5067512;28;20055;-85
2022/02/12 01:47:20;;;;;;;63.65;31.98;;;;;;;1.20;100.00;98227.31;5085182;28;20032;-85
2022/02/12 01:50:05;;;;;;;63.15;29.50;;;;;;;1.07;100.00;98234.50;5060916;28;20434;-85
2022/02/12 01:52:36;;;;;;;60.38;30.20;;;;;;;1.03;100.00;98223.13;5069442;28;20032;-85
2022/02/12 01:55:04;;;;;;;64.55;29.88;;;;;;;0.97;100.00;98235.50;5061918;28;20024;-85
2022/02/12 01:57:30;;;;;;;66.57;29.95;;;;;;;1.08;100.00;98238.88;5064516;28;20545;-85
2022/02/12 01:59:56;;;;;;;69.88;32.15;;;;;;;0.95;100.00;98234.69;5064091;28;20043;-85
2022/02/12 02:02:24;;;;;;;67.13;32.67;;;;;;;1.01;100.00;98246.00;5077844;28;20491;-86
2022/02/12 02:04:50;;;;;;;61.65;29.50;;;;;;;1.03;100.00;98235.44;5061869;28;20121;-85
2022/02/12 02:07:15;;;;;;;59.05;28.35;;;;;;;1.04;100.00;98250.34;5063208;28;20044;-85
2022/02/12 02:09:41;;;;;;;60.53;27.42;;;;;;;1.09;100.00;98251.16;5069917;28;20410;-85
2022/02/12 02:12:07;;;;;;;55.20;26.08;;;;;;;1.02;100.00;98247.72;5064075;28;20384;-85
2022/02/12 02:14:34;;;;;;;53.33;24.73;;;;;;;1.08;100.00;98258.19;5066536;28;20509;-85
2022/02/12 02:17:00;;;;;;;57.45;26.85;;;;;;;1.06;100.00;98238.91;5066664;28;20036;-85
2022/02/12 02:19:26;;;;;;;70.55;30.73;;;;;;;1.07;100.00;98237.13;5066353;28;20062;-85
2022/02/12 02:21:53;;;;;;;60.92;28.10;;;;;;;1.02;100.00;98239.81;5062088;28;20027;-85
2022/02/12 02:24:19;;;;;;;58.13;25.33;;;;;;;1.16;100.00;98254.59;5056356;28;20039;-85
2022/02/12 02:26:45;;;;;;;49.60;23.83;;;;;;;1.15;100.00;98248.44;5069159;28;20028;-85
2022/02/12 02:29:11;;;;;;;56.83;24.42;;;;;;;1.17;100.00;98262.44;5065496;28;20445;-85
2022/02/12 02:31:36;;;;;;;58.53;25.88;;;;;;;1.11;100.00;98259.91;5063341;28;20116;-85
2022/02/12 02:34:09;;;;;;;48.22;24.92;;;;;;;1.12;100.00;98269.56;5066637;28;20103;-85
2022/02/12 02:36:35;;;;;;;55.42;26.48;;;;;;;1.00;100.00;98257.41;5081600;28;20522;-85
2022/02/12 02:39:00;;;;;;;55.33;24.67;;;;;;;1.01;100.00;98274.09;5090770;28;20138;-85
2022/02/12 02:41:26;;;;;;;53.30;25.27;;;;;;;0.95;100.00;98266.28;5075353;28;20028;-87
2022/02/12 02:43:52;;;;;;;50.97;25.42;;;;;;;0.97;100.00;98285.56;5066309;28;20106;-85
2022/02/12 02:46:18;;;;;;;53.15;25.73;;;;;;;0.97;100.00;98277.66;5069468;28;20051;-85
2022/02/12 02:48:44;;;;;;;53.88;26.25;;;;;;;1.00;100.00;98285.50;5066156;28;20067;-85
2022/02/12 02:56:58;;;;;;;51.17;25.55;;;;;;;0.97;100.00;98282.91;5013294;28;20106;-85
2022/02/12 02:59:24;;;;;;;52.63;24.13;;;;;;;0.96;100.00;98282.03;5039257;28;20032;-84
2022/02/12 03:01:56;;;;;;;46.67;22.92;;;;;;;0.98;100.00;98293.44;5057916;28;20411;-85
2022/02/12 03:04:22;;;;;;;52.38;22.25;;;;;;;0.85;100.00;98281.31;5070361;28;20438;-85
2022/02/12 03:06:48;;;;;;;56.90;25.55;;;;;;;0.93;100.00;98295.25;5056535;28;20031;-85
2022/02/12 03:09:13;;;;;;;51.63;23.98;;;;;;;0.89;100.00;98292.69;5063823;28;20387;-85
2022/02/12 03:11:39;;;;;;;54.28;25.83;;;;;;;0.83;100.00;98290.13;5059449;28;20054;-85
2022/02/12 03:14:05;;;;;;;59.72;26.70;;;;;;;0.73;100.00;98285.84;5070008;28;20032;-85
2022/02/12 03:16:31;;;;;;;57.63;25.45;;;;;;;0.77;100.00;98303.34;5064629;28;20028;-85
2022/02/12 03:18:57;;;;;;;51.22;23.58;;;;;;;0.82;100.00;98302.41;5067979;28;20028;-85
2022/02/12 03:21:23;;;;;;;54.33;24.65;;;;;;;0.70;100.00;98306.94;5084084;28;20020;-85
2022/02/12 03:23:48;;;;;;;61.80;27.10;;;;;;;0.71;100.00;98319.22;5054698;28;20035;-85
2022/02/12 03:26:14;;;;;;;52.72;24.60;;;;;;;0.61;100.00;98304.41;5064568;28;20031;-85
2022/02/12 03:28:40;;;;;;;53.20;23.05;;;;;;;0.69;100.00;98326.25;5071828;28;20020;-85
2022/02/12 03:31:06;;;;;;;62.22;25.10;;;;;;;0.66;100.00;98321.00;5070309;28;20040;-85
2022/02/12 03:33:32;;;;;;;60.78;28.58;;;;;;;0.69;100.00;98316.59;5054440;28;20058;-85
2022/02/12 03:35:58;;;;;;;60.47;26.30;;;;;;;0.79;100.00;98326.13;5055348;28;20519;-85
2022/02/12 03:38:26;;;;;;;56.78;29.15;;;;;;;0.74;100.00;98314.78;5068376;28;20030;-85
2022/02/12 03:41:00;;;;;;;62.13;27.65;;;;;;;0.70;100.00;98312.19;5091079;28;20031;-84
2022/02/12 03:43:28;;;;;;;50.50;25.48;;;;;;;0.68;100.00;98303.47;5068915;28;20051;-85
2022/02/12 03:45:54;;;;;;;57.95;27.98;;;;;;;0.84;100.00;98328.72;5064687;28;20049;-85
2022/02/12 03:48:23;;;;;;;55.03;25.65;;;;;;;0.68;100.00;98325.38;5063782;28;20078;-84
2022/02/12 03:50:49;;;;;;;58.70;27.80;;;;;;;0.55;100.00;98327.25;5057286;28;20016;-84
2022/02/12 03:53:14;;;;;;;55.17;25.88;;;;;;;0.50;100.00;98325.56;5081449;28;20494;-84
2022/02/12 03:55:40;;;;;;;50.97;24.08;;;;;;;0.43;100.00;98345.78;5076991;28;20052;-85
2022/02/12 03:58:10;;;;;;;52.40;25.35;;;;;;;0.41;100.00;98347.56;5074983;28;20028;-85
2022/02/12 04:00:42;;;;;;;58.30;27.55;;;;;;;0.32;100.00;98347.66;5070219;28;20036;-87
2022/02/12 04:03:38;;;;;;;90.75;40.22;;;;;;;0.14;100.00;98342.56;5073745;28;20415;-86
2022/02/12 04:06:04;;;;;;;82.10;36.03;;;;;;;0.10;100.00;98338.19;5054922;28;20044;-85
2022/02/12 04:08:29;;;;;;;98.88;44.97;;;;;;;0.16;100.00;98346.03;5087007;28;20029;-85
2022/02/12 04:10:55;;;;;;;83.72;42.22;;;;;;;0.27;100.00;98341.56;5054185;28;20024;-85
2022/02/12 04:13:20;;;;;;;83.22;40.75;;;;;;;0.35;100.00;98347.63;5059056;28;20034;-85
2022/02/12 04:15:46;;;;;;;90.45;41.75;;;;;;;0.43;100.00;98363.34;5088007;28;20052;-84
2022/02/12 04:18:13;;;;;;;63.60;30.90;;;;;;;0.43;100.00;98360.72;5077210;28;20039;-85
2022/02/12 04:20:39;;;;;;;52.15;25.27;;;;;;;0.30;100.00;98352.06;5068191;28;20123;-85
2022/02/12 04:23:05;;;;;;;61.28;28.17;;;;;;;0.26;100.00;98358.22;5087427;28;20040;-85
2022/02/12 04:25:31;;;;;;;60.30;27.27;;;;;;;0.25;100.00;98348.59;5066249;28;20411;-85
2022/02/12 04:27:56;;;;;;;69.43;31.17;;;;;;;0.20;100.00;98347.75;5090126;28;20036;-85
2022/02/12 04:30:22;;;;;;;62.92;30.30;;;;;;;0.24;100.00;98354.75;5067911;28;20086;-86
2022/02/12 04:32:47;;;;;;;84.68;36.15;;;;;;;0.29;100.00;98358.19;5060013;28;20032;-85
2022/02/12 04:35:15;;;;;;;74.80;34.42;;;;;;;0.34;100.00;98377.44;5067509;28;20530;-87
2022/02/12 04:37:41;;;;;;;72.35;34.15;;;;;;;0.25;100.00;98351.22;5072809;28;20039;-85
2022/02/12 04:40:07;;;;;;;73.18;34.22;;;;;;;0.40;100.00;98374.75;5074400;28;20024;-85
2022/02/12 04:42:33;;;;;;;64.53;30.85;;;;;;;0.39;100.00;98375.66;5058254;28;20115;-85
2022/02/12 04:44:59;;;;;;;80.32;35.70;;;;;;;0.38;100.00;98379.16;5063709;28;20079;-85
2022/02/12 04:47:25;;;;;;;80.30;33.60;;;;;;;0.41;100.00;98383.53;5069705;28;20031;-85
2022/02/12 04:49:50;;;;;;;71.70;33.08;;;;;;;0.22;100.00;98372.28;5072969;28;20518;-86
2022/02/12 04:52:18;;;;;;;58.83;26.40;;;;;;;0.34;100.00;98374.81;5087533;28;20088;-86
2022/02/12 04:54:44;;;;;;;64.05;30.48;;;;;;;0.29;100.00;98381.88;5076907;28;20073;-86
2022/02/12 04:57:09;;;;;;;62.00;29.88;;;;;;;0.18;100.00;98364.44;5057736;28;20024;-85
2022/02/12 04:59:35;;;;;;;64.82;30.70;;;;;;;0.16;100.00;98398.63;5058165;28;20487;-85
2022/02/12 05:02:01;;;;;;;68.53;31.85;;;;;;;-0.17;100.00;98378.72;5059624;28;20081;-85
2022/02/12 05:04:27;;;;;;;71.90;34.00;;;;;;;0.02;100.00;98395.25;5069506;28;20039;-85
2022/02/12 05:06:53;;;;;;;64.35;30.27;;;;;;;-0.02;100.00;98389.13;5077873;28;20028;-85
2022/02/12 05:09:19;;;;;;;71.97;33.35;;;;;;;0.08;100.00;98389.94;5078134;28;20024;-85
2022/02/12 05:11:46;;;;;;;76.85;36.08;;;;;;;0.09;100.00;98396.97;5077733;28;20031;-85
2022/02/12 05:14:13;;;;;;;89.35;42.63;;;;;;;0.27;100.00;98412.59;5074195;28;20034;-85
2022/02/12 05:16:39;;;;;;;112.53;50.42;;;;;;;0.27;100.00;98412.59;5065930;28;20036;-85
2022/02/12 05:19:05;;;;;;;148.63;63.95;;;;;;;0.44;100.00;98415.97;5075666;28;20043;-86
2022/02/12 05:21:31;;;;;;;161.18;70.15;;;;;;;0.19;100.00;98410.88;5073248;28;20128;-85
2022/02/12 05:23:56;;;;;;;136.18;63.70;;;;;;;0.22;100.00;98408.22;5058093;28;20039;-85
2022/02/12 05:26:22;;;;;;;121.38;52.45;;;;;;;0.29;100.00;98423.97;5057713;28;20029;-86
2022/02/12 05:28:48;;;;;;;112.40;49.75;;;;;;;0.19;100.00;98418.78;5081956;28;20480;-86
2022/02/12 05:31:14;;;;;;;114.78;48.70;;;;;;;0.11;100.00;98426.72;5060324;28;20039;-86
2022/02/12 05:33:40;;;;;;;131.60;57.72;;;;;;;0.16;100.00;98431.94;5064287;28;20032;-85
2022/02/12 05:36:06;;;;;;;118.35;53.70;;;;;;;0.24;100.00;98459.09;5071290;28;20415;-86
2022/02/12 05:38:32;;;;;;;107.78;49.13;;;;;;;0.29;100.00;98462.56;5077506;28;20028;-86
2022/02/12 05:40:58;;;;;;;100.13;46.67;;;;;;;0.12;100.00;98452.16;5060518;28;20112;-87
2022/02/12 05:43:23;;;;;;;103.10;46.75;;;;;;;0.06;100.00;98433.78;5058640;28;20081;-87
2022/02/12 05:45:49;;;;;;;98.80;46.50;;;;;;;0.25;100.00;98447.66;5092856;28;20047;-85
2022/02/12 05:48:16;;;;;;;111.00;45.92;;;;;;;0.43;100.00;98469.47;5076711;28;20459;-84
2022/02/12 05:50:44;;;;;;;114.40;46.97;;;;;;;0.45;100.00;98466.84;5064379;28;20031;-86
2022/02/12 05:53:10;;;;;;;98.63;43.22;;;;;;;0.67;100.00;98478.06;5076728;28;20110;-85
2022/02/12 05:56:02;;;;;;;120.07;51.92;;;;;;;0.84;100.00;98490.19;5057274;28;20116;-85
2022/02/12 05:58:28;;;;;;;130.10;56.17;;;;;;;0.87;100.00;98482.28;5093680;28;20028;-85
2022/02/12 06:00:53;;;;;;;128.73;55.55;;;;;;;0.95;100.00;98487.50;5093796;28;20476;-85
2022/02/12 06:03:19;;;;;;;114.78;52.15;;;;;;;1.14;100.00;98499.56;5075863;28;20380;-86
2022/02/12 06:05:45;;;;;;;111.40;50.00;;;;;;;1.20;100.00;98499.50;5060658;28;20024;-85
2022/02/12 06:08:11;;;;;;;109.45;49.53;;;;;;;1.10;100.00;98503.16;5068898;28;20032;-85
2022/02/12 06:10:36;;;;;;;107.32;50.03;;;;;;;1.16;100.00;98516.25;5066227;28;20024;-87
2022/02/12 06:13:02;;;;;;;92.25;45.05;;;;;;;1.05;100.00;98492.63;5058122;28;20115;-87
2022/02/12 06:15:29;;;;;;;101.68;45.90;;;;;;;1.18;100.00;98514.47;5068226;28;20042;-87
2022/02/12 06:17:56;;;;;;;100.70;45.65;;;;;;;1.29;100.00;98525.81;5077078;28;20038;-86
2022/02/12 06:20:22;;;;;;;113.53;52.95;;;;;;;1.49;100.00;98522.94;5093195;28;20456;-86
2022/02/12 06:22:48;;;;;;;115.47;56.80;;;;;;;1.89;100.00;98513.72;5071777;28;20036;-87
2022/02/12 06:25:13;;;;;;;121.88;55.00;;;;;;;2.28;99.51;98519.38;5076221;28;20419;-83
2022/02/12 06:27:39;;;;;;;106.53;49.03;;;;;;;2.64;95.10;98538.22;5071099;28;20119;-88
2022/02/12 06:30:05;;;;;;;169.55;70.20;;;;;;;2.68;93.39;98534.59;5063085;28;20464;-84
2022/02/12 06:32:31;;;;;;;119.65;53.08;;;;;;;2.93;93.45;98539.50;5057661;28;20025;-86
2022/02/12 06:35:01;;;;;;;98.63;48.65;;;;;;;3.18;92.25;98544.38;5056211;28;20396;-86
2022/02/12 06:37:28;;;;;;;120.45;54.17;;;;;;;3.67;87.59;98536.44;5060337;28;20422;-87
2022/02/12 06:39:54;;;;;;;96.22;48.15;;;;;;;4.06;85.04;98545.38;5074759;28;20024;-85
2022/02/12 06:42:19;;;;;;;84.80;43.95;;;;;;;4.15;84.01;98557.59;5075878;28;20028;-86
2022/02/12 06:44:45;;;;;;;74.53;34.05;;;;;;;3.57;84.47;98536.66;5081760;28;20101;-86
2022/02/12 06:47:11;;;;;;;62.00;29.75;;;;;;;3.77;84.74;98545.97;5076013;28;20038;-86
2022/02/12 06:49:36;;;;;;;62.10;30.02;;;;;;;4.30;82.08;98558.16;5077040;28;20059;-87
2022/02/12 06:52:08;;;;;;;69.43;33.78;;;;;;;3.81;83.36;98563.50;5082045;28;20471;-88
2022/02/12 06:54:37;;;;;;;79.30;32.45;;;;;;;3.69;86.24;98569.03;5075080;28;20086;-88
2022/02/12 06:57:03;;;;;;;75.07;36.55;;;;;;;3.88;85.53;98574.00;5058111;28;20096;-87
2022/02/12 06:59:28;;;;;;;77.25;37.50;;;;;;;4.56;81.14;98569.94;5067592;28;20065;-86
2022/02/12 07:01:54;;;;;;;106.90;44.35;;;;;;;5.10;77.72;98575.78;5069686;28;20028;-74
2022/02/12 07:04:19;;;;;;;83.40;40.55;;;;;;;4.92;77.64;98579.75;5086090;28;20031;-79
2022/02/12 07:06:45;;;;;;;81.65;42.88;;;;;;;4.28;79.63;98572.28;5086673;28;20036;-76
2022/02/12 07:09:11;;;;;;;98.90;44.00;;;;;;;3.99;82.31;98577.31;5069025;28;20040;-87
2022/02/12 07:11:37;;;;;;;86.82;43.85;;;;;;;3.98;83.32;98555.25;5071781;28;20456;-88
2022/02/12 07:14:03;;;;;;;104.63;48.70;;;;;;;4.83;80.16;98580.78;5079751;28;20024;-87
2022/02/12 07:16:29;;;;;;;91.07;45.78;;;;;;;5.35;77.40;98566.31;5072239;28;20062;-88
2022/02/12 07:18:54;;;;;;;97.63;50.55;;;;;;;5.83;74.06;98558.88;5065204;28;20028;-87
2022/02/12 07:21:22;;;;;;;111.25;54.63;;;;;;;6.97;69.12;98554.66;5081779;28;20043;-89
2022/02/12 07:23:51;;;;;;;105.70;52.78;;;;;;;6.71;69.67;98562.53;5072451;28;20028;-88
2022/02/12 07:26:17;;;;;;;94.40;45.97;;;;;;;6.86;69.07;98583.34;5079930;28;20028;-86
2022/02/12 07:28:42;;;;;;;130.15;62.13;;;;;;;7.00;68.41;98599.75;5065457;28;20500;-86
2022/02/12 07:31:16;;;;;;;119.18;57.15;;;;;;;7.64;65.57;98568.41;5083319;28;20039;-86
2022/02/12 07:33:44;;;;;;;164.18;80.05;;;;;;;8.38;62.36;98564.91;5068428;28;20496;-86
2022/02/12 07:36:16;;;;;;;176.55;88.15;;;;;;;8.50;61.64;98578.66;5072454;28;20502;-88
2022/02/12 07:38:41;;;;;;;166.68;86.90;;;;;;;7.67;64.47;98583.38;5065483;28;20038;-85
2022/02/12 07:41:12;;;;;;;154.00;81.22;;;;;;;7.31;65.74;98562.41;5088805;28;20021;-86
2022/02/12 07:43:38;;;;;;;167.52;83.50;;;;;;;7.47;65.20;98558.34;5078957;28;20032;-85
2022/02/12 07:46:53;;;;;;;;;;;;;;;;;;;;;
2022/02/12 07:49:22;;;;;;;109.15;56.88;;;;;;;9.38;60.55;98612.59;5101518;28;20028;-88
2022/02/12 07:51:47;;;;;;;118.97;65.03;;;;;;;8.78;63.13;98597.16;5064077;28;20119;-87
2022/02/12 07:54:13;;;;;;;118.50;61.78;;;;;;;9.42;58.92;98578.59;5072550;28;20034;-85
2022/02/12 07:56:39;;;;;;;138.85;71.30;;;;;;;9.83;56.83;98548.38;5084848;28;20460;-86
2022/02/12 07:59:05;;;;;;;129.35;68.57;;;;;;;11.13;55.07;98571.88;5072667;28;20076;-85
2022/02/12 08:01:31;;;;;;;141.63;79.13;;;;;;;11.13;53.08;98577.22;5061347;28;20027;-87
2022/02/12 08:04:00;;;;;;;131.15;70.65;;;;;;;10.52;53.73;98551.56;5077595;28;20032;-88
2022/02/12 08:09:10;;;;;;;168.80;95.72;;;;;;;11.52;52.67;98589.59;5084467;28;20065;-88
2022/02/12 08:11:38;;;;;;;109.68;62.05;;;;;;;11.12;53.54;98586.19;5073295;28;20015;-88
2022/02/12 08:14:05;;;;;;;132.05;71.50;;;;;;;10.72;54.02;98549.72;5064904;28;20028;-87
2022/02/12 08:16:30;;;;;;;112.18;58.75;;;;;;;10.64;55.24;98530.44;5067635;28;20109;-88
2022/02/12 08:18:56;;;;;;;104.72;52.78;;;;;;;10.81;55.82;98618.00;5068438;28;20557;-88
2022/02/12 08:21:22;;;;;;;84.15;42.45;;;;;;;11.04;53.53;98577.66;5067490;28;20066;-87
2022/02/12 08:23:47;;;;;;;114.63;59.95;;;;;;;11.03;53.77;98564.31;5089658;28;20028;-88
2022/02/12 08:26:14;;;;;;;89.55;43.28;;;;;;;11.26;54.49;98564.94;5081350;28;20024;-88
2022/02/12 08:28:41;;;;;;;69.70;36.33;;;;;;;11.76;54.00;98577.69;5066768;28;20494;-88
2022/02/12 08:31:07;;;;;;;67.47;36.35;;;;;;;12.09;52.22;98570.63;5074538;28;20059;-89
2022/02/12 08:33:32;;;;;;;66.93;37.47;;;;;;;12.28;50.94;98576.78;5070977;28;20118;-90
2022/02/12 08:35:58;;;;;;;74.13;42.75;;;;;;;12.46;53.03;98585.66;5072386;28;20391;-90
2022/02/12 08:38:23;;;;;;;53.60;30.38;;;;;;;12.85;50.61;98596.97;5078268;28;20033;-90
2022/02/12 08:40:49;;;;;;;93.50;52.78;;;;;;;12.43;52.22;98605.47;5075498;28;20031;-87
2022/02/12 08:43:14;;;;;;;83.00;49.40;;;;;;;12.46;53.80;98602.63;5067161;28;20034;-90
2022/02/12 08:45:41;;;;;;;46.88;27.13;;;;;;;12.82;50.37;98593.59;5082345;28;20482;-89
2022/02/12 08:48:09;;;;;;;75.13;33.70;;;;;;;12.66;53.35;98622.19;5070441;28;20147;-88
2022/02/12 08:50:35;;;;;;;106.82;62.38;;;;;;;13.59;50.26;98621.53;5074163;28;20125;-90
2022/02/12 08:53:01;;;;;;;82.32;47.67;;;;;;;14.30;50.54;98616.44;5066765;28;20415;-90
2022/02/12 08:55:28;;;;;;;43.95;26.83;;;;;;;14.61;45.61;98595.66;5066468;28;20039;-89
2022/02/12 08:57:54;;;;;;;52.65;27.70;;;;;;;15.16;47.08;98616.50;5071353;28;20543;-88
2022/02/12 09:00:20;;;;;;;39.45;24.15;;;;;;;16.96;41.51;98603.44;5073991;28;20496;-88
2022/02/12 09:02:46;;;;;;;50.28;27.52;;;;;;;16.48;42.38;98614.00;5066754;28;20479;-88
2022/02/12 09:05:11;;;;;;;41.25;24.38;;;;;;;16.97;40.38;98594.38;5069867;28;20023;-89
2022/02/12 09:07:37;;;;;;;43.55;25.85;;;;;;;16.21;44.27;98619.41;5069297;28;20031;-88
2022/02/12 09:10:03;;;;;;;51.58;29.33;;;;;;;16.71;43.15;98588.97;5069524;28;20035;-88
2022/02/12 09:12:29;;;;;;;51.53;30.08;;;;;;;16.36;43.73;98616.66;5070627;28;20059;-90
2022/02/12 09:14:54;;;;;;;55.65;29.60;;;;;;;16.60;43.44;98612.31;5072904;28;20036;-89
2022/02/12 09:17:20;;;;;;;51.13;28.05;;;;;;;16.35;42.90;98605.00;5069763;28;20118;-90
2022/02/12 09:19:47;;;;;;;45.92;27.98;;;;;;;16.83;41.93;98598.03;5063912;28;20456;-87
2022/02/12 09:22:12;;;;;;;53.85;29.75;;;;;;;17.33;40.07;98605.25;5074366;28;20478;-89
2022/02/12 09:24:38;;;;;;;50.28;31.75;;;;;;;17.21;39.64;98603.44;5074266;28;20071;-88
2022/02/12 09:27:04;;;;;;;53.97;33.90;;;;;;;16.58;43.08;98615.09;5067136;28;20521;-87
2022/02/12 09:29:30;;;;;;;36.63;23.77;;;;;;;16.97;39.62;98591.69;5066130;28;20027;-87
2022/02/12 09:31:55;;;;;;;39.03;22.73;;;;;;;16.91;39.04;98602.94;5065077;28;20031;-75
2022/02/12 09:34:21;;;;;;;34.53;19.48;;;;;;;17.54;37.82;98609.09;5100207;28;20023;-75
2022/02/12 09:36:46;;;;;;;37.42;17.85;;;;;;;17.90;35.93;98591.16;5106045;28;20134;-75
2022/02/12 09:39:12;;;;;;;34.40;19.38;;;;;;;17.58;36.85;98591.72;5092072;28;20046;-81
2022/02/12 09:41:37;;;;;;;29.60;17.35;;;;;;;17.65;35.90;98582.19;5090017;28;20035;-78
2022/02/12 09:44:03;;;;;;;28.52;15.65;;;;;;;18.00;35.57;98575.94;5073152;28;20028;-78
2022/02/12 09:46:34;;;;;;;24.17;13.95;;;;;;;17.60;36.68;98584.34;5081458;28;20028;-91
2022/02/12 09:49:02;;;;;;;10.43;5.40;;;;;;;18.75;30.33;98542.97;5083516;28;20123;-91
2022/02/12 09:51:29;;;;;;;11.85;6.45;;;;;;;18.95;32.93;98566.66;5070962;28;20040;-72
2022/02/12 09:53:55;;;;;;;12.95;7.15;;;;;;;19.33;30.22;98554.56;5070272;28;20027;-73
2022/02/12 09:56:21;;;;;;;13.13;6.28;;;;;;;18.25;31.46;98560.44;5087886;28;20024;-73
2022/02/12 09:58:48;;;;;;;12.43;4.97;;;;;;;18.81;28.94;98544.34;5071664;28;20041;-73
2022/02/12 10:01:15;;;;;;;17.20;10.07;;;;;;;19.20;29.23;98542.97;5083568;28;20024;-72
2022/02/12 10:03:41;;;;;;;13.95;5.22;;;;;;;19.40;27.59;98531.41;5077338;28;20027;-72
2022/02/12 10:06:07;;;;;;;23.42;7.15;;;;;;;18.24;28.31;98530.75;5071785;28;20031;-71
2022/02/12 10:08:37;;;;;;;9.65;4.32;;;;;;;18.67;27.74;98529.13;5094401;28;20027;-76
2022/02/12 10:11:38;;;;;;;6.68;2.53;;;;;;;19.27;26.02;98506.22;5069919;28;20023;-72
2022/02/12 10:14:23;;;;;;;4.55;2.22;;;;;;;19.33;25.16;98494.88;5104078;28;20031;-77
2022/02/12 10:17:00;;;;;;;11.35;2.65;;;;;;;20.23;24.05;98493.59;5068778;28;20441;-74
2022/02/12 10:19:38;;;;;;;11.48;4.05;;;;;;;21.01;25.62;98500.22;5081798;28;20054;-74
2022/02/12 10:22:08;;;;;;;20.15;11.32;;;;;;;20.18;23.80;98471.41;5086008;28;20027;-75
2022/02/12 10:24:58;;;;;;;7.82;2.80;;;;;;;19.45;23.50;98466.75;5082604;28;20403;-73
2022/02/12 10:27:27;;;;;;;25.88;4.95;;;;;;;20.51;24.49;98488.41;5075842;28;20024;-74
2022/02/12 10:29:59;;;;;;;8.07;1.95;;;;;;;19.77;23.62;98472.19;5077113;28;20034;-74
2022/02/12 10:32:25;;;;;;;4.28;1.90;;;;;;;19.44;24.04;98481.31;5069057;28;20034;-74
2022/02/12 10:34:53;;;;;;;6.43;2.03;;;;;;;18.56;25.83;98488.50;5088325;28;20030;-74
2022/02/12 10:37:22;;;;;;;6.93;1.92;;;;;;;18.15;26.27;98494.41;5091100;28;20028;-74
2022/02/12 10:40:02;;;;;;;20.00;2.08;;;;;;;18.62;25.43;98477.16;5080954;28;20042;-74
2022/02/12 10:42:30;;;;;;;12.52;2.58;;;;;;;17.72;26.60;98482.41;5056920;28;20035;-75
2022/02/12 10:44:56;;;;;;;5.70;1.75;;;;;;;17.00;27.52;98486.03;5082203;28;20526;-74
2022/02/12 10:47:22;;;;;;;9.63;3.97;;;;;;;17.03;28.32;98486.69;5073875;28;20067;-75
2022/02/12 10:49:49;;;;;;;16.02;4.60;;;;;;;17.87;26.87;98494.81;5055315;28;20445;-74
2022/02/12 10:52:15;;;;;;;4.63;1.63;;;;;;;17.30;27.97;98490.06;5058593;28;20036;-75
2022/02/12 10:54:51;;;;;;;3.90;2.03;;;;;;;17.61;27.54;98482.38;5061462;28;20501;-75
2022/02/12 10:57:19;;;;;;;7.68;3.65;;;;;;;18.55;26.39;98485.91;5082413;28;20024;-75
2022/02/12 10:59:44;;;;;;;4.65;1.52;;;;;;;17.73;27.43;98481.44;5076154;28;20066;-75
2022/02/12 11:02:17;;;;;;;4.40;2.30;;;;;;;18.22;26.33;98478.53;5057233;28;20020;-75
2022/02/12 11:04:44;;;;;;;10.15;3.28;;;;;;;18.69;26.34;98478.41;5056452;28;20031;-75
2022/02/12 11:07:15;;;;;;;4.47;3.28;;;;;;;18.80;26.11;98472.97;5075559;28;20127;-75
2022/02/12 11:09:44;;;;;;;15.30;8.65;;;;;;;19.76;25.33;98468.63;5081768;28;20028;-75
2022/02/12 11:12:10;;;;;;;4.65;1.88;;;;;;;18.57;25.15;98463.13;5081258;28;20403;-75
2022/02/12 11:14:37;;;;;;;17.25;2.50;;;;;;;17.97;26.60;98470.56;5061804;28;20376;-74
2022/02/12 11:17:11;;;;;;;10.30;3.15;;;;;;;18.22;26.61;98462.28;5081361;28;20024;-74
2022/02/12 11:19:37;;;;;;;5.43;2.30;;;;;;;18.89;25.82;98463.22;5098592;28;20426;-74
2022/02/12 11:22:03;;;;;;;2.55;1.73;;;;;;;17.50;26.91;98469.66;5080624;28;20020;-74
2022/02/12 11:24:46;;;;;;;4.50;3.15;;;;;;;18.02;26.06;98460.28;5081266;28;20028;-74
2022/02/12 11:27:29;;;;;;;3.50;1.52;;;;;;;18.14;26.60;98460.19;5091110;28;20034;-74
2022/02/12 11:29:56;;;;;;;17.55;12.45;;;;;;;17.83;25.90;98464.41;5079991;28;20507;-74